sensor_id;sensor_type;location;lat;lon;timestamp;P1;durP1;ratioP1;P2;durP2;ratioP2
23280;SDS011;11809;56.390;-3.266;2023-05-01T00:00:55;0.77;;;0.70;;
23280;SDS011;11809;56.390;-3.266;2023-05-01T00:03:23;0.75;;;0.70;;
23280;SDS011;11809;56.390;-3.266;2023-05-01T00:05:51;1.33;;;0.60;;
23280;SDS011;11809;56.390;-3.266;2023-05-01T00:08:24;0.60;;;0.60;;
23280;SDS011;11809;56.390;-3.266;2023-05-01T00:10:52;0.70;;;0.70;;
23280;SDS011;11809;56.390;-3.266;2023-05-01T00:13:19;0.60;;;0.60;;
23280;SDS011;11809;56.390;-3.266;2023-05-01T00:15:49;0.77;;;0.70;;
23280;SDS011;11809;56.390;-3.266;2023-05-01T00:18:16;1.67;;;0.70;;
23280;SDS011;11809;56.390;-3.266;2023-05-01T00:20:43;0.60;;;0.60;;
23280;SDS011;11809;56.390;-3.266;2023-05-01T00:23:10;0.70;;;0.70;;
23280;SDS011;11809;56.390;-3.266;2023-05-01T00:25:38;0.82;;;0.68;;
23280;SDS011;11809;56.390;-3.266;2023-05-01T00:28:06;0.77;;;0.60;;
23280;SDS011;11809;56.390;-3.266;2023-05-01T00:30:33;0.60;;;0.60;;
23280;SDS011;11809;56.390;-3.266;2023-05-01T00:33:01;1.20;;;0.70;;
23280;SDS011;11809;56.390;-3.266;2023-05-01T00:35:28;0.65;;;0.65;;
23280;SDS011;11809;56.390;-3.266;2023-05-01T00:37:56;0.80;;;0.80;;
23280;SDS011;11809;56.390;-3.266;2023-05-01T00:40:24;0.52;;;0.52;;
23280;SDS011;11809;56.390;-3.266;2023-05-01T00:42:51;0.95;;;0.60;;
23280;SDS011;11809;56.390;-3.266;2023-05-01T00:45:18;0.70;;;0.70;;
23280;SDS011;11809;56.390;-3.266;2023-05-01T00:47:45;0.68;;;0.68;;
23280;SDS011;11809;56.390;-3.266;2023-05-01T00:50:13;0.60;;;0.60;;
23280;SDS011;11809;56.390;-3.266;2023-05-01T00:52:40;0.55;;;0.55;;
23280;SDS011;11809;56.390;-3.266;2023-05-01T00:55:08;0.55;;;0.55;;
23280;SDS011;11809;56.390;-3.266;2023-05-01T00:57:35;0.70;;;0.70;;
23280;SDS011;11809;56.390;-3.266;2023-05-01T01:00:02;0.63;;;0.63;;
23280;SDS011;11809;56.390;-3.266;2023-05-01T01:02:30;0.65;;;0.60;;
23280;SDS011;11809;56.390;-3.266;2023-05-01T01:04:58;0.80;;;0.60;;
23280;SDS011;11809;56.390;-3.266;2023-05-01T01:08:09;0.55;;;0.55;;
23280;SDS011;11809;56.390;-3.266;2023-05-01T01:16:25;0.60;;;0.52;;
23280;SDS011;11809;56.390;-3.266;2023-05-01T01:18:39;0.70;;;0.70;;
23280;SDS011;11809;56.390;-3.266;2023-05-01T01:21:16;0.50;;;0.50;;
23280;SDS011;11809;56.390;-3.266;2023-05-01T01:23:59;1.17;;;0.50;;
23280;SDS011;11809;56.390;-3.266;2023-05-01T01:26:32;0.55;;;0.52;;
23280;SDS011;11809;56.390;-3.266;2023-05-01T01:32:16;0.60;;;0.60;;
23280;SDS011;11809;56.390;-3.266;2023-05-01T01:34:50;1.27;;;0.68;;
23280;SDS011;11809;56.390;-3.266;2023-05-01T01:37:28;0.50;;;0.50;;
23280;SDS011;11809;56.390;-3.266;2023-05-01T01:40:02;0.70;;;0.70;;
23280;SDS011;11809;56.390;-3.266;2023-05-01T01:42:40;0.60;;;0.50;;
23280;SDS011;11809;56.390;-3.266;2023-05-01T01:45:16;0.65;;;0.50;;
23280;SDS011;11809;56.390;-3.266;2023-05-01T01:47:48;0.55;;;0.52;;
23280;SDS011;11809;56.390;-3.266;2023-05-01T01:50:19;0.90;;;0.50;;
23280;SDS011;11809;56.390;-3.266;2023-05-01T01:52:50;2.15;;;0.60;;
23280;SDS011;11809;56.390;-3.266;2023-05-01T01:55:20;0.85;;;0.60;;
23280;SDS011;11809;56.390;-3.266;2023-05-01T01:57:50;0.93;;;0.70;;
23280;SDS011;11809;56.390;-3.266;2023-05-01T02:00:18;1.95;;;0.73;;
23280;SDS011;11809;56.390;-3.266;2023-05-01T02:02:47;0.60;;;0.60;;
23280;SDS011;11809;56.390;-3.266;2023-05-01T02:05:16;0.95;;;0.60;;
23280;SDS011;11809;56.390;-3.266;2023-05-01T02:07:46;0.95;;;0.60;;
23280;SDS011;11809;56.390;-3.266;2023-05-01T02:10:15;0.82;;;0.60;;
23280;SDS011;11809;56.390;-3.266;2023-05-01T02:12:45;1.02;;;0.50;;
23280;SDS011;11809;56.390;-3.266;2023-05-01T02:15:14;0.40;;;0.40;;
23280;SDS011;11809;56.390;-3.266;2023-05-01T02:17:43;0.50;;;0.50;;
23280;SDS011;11809;56.390;-3.266;2023-05-01T02:20:11;0.73;;;0.60;;
23280;SDS011;11809;56.390;-3.266;2023-05-01T02:22:39;0.50;;;0.50;;
23280;SDS011;11809;56.390;-3.266;2023-05-01T02:25:08;0.60;;;0.60;;
23280;SDS011;11809;56.390;-3.266;2023-05-01T02:27:38;1.80;;;0.60;;
23280;SDS011;11809;56.390;-3.266;2023-05-01T02:30:10;0.75;;;0.70;;
23280;SDS011;11809;56.390;-3.266;2023-05-01T02:32:38;0.60;;;0.60;;
23280;SDS011;11809;56.390;-3.266;2023-05-01T02:35:05;1.15;;;0.60;;
23280;SDS011;11809;56.390;-3.266;2023-05-01T02:37:33;0.63;;;0.60;;
23280;SDS011;11809;56.390;-3.266;2023-05-01T02:40:00;1.20;;;0.52;;
23280;SDS011;11809;56.390;-3.266;2023-05-01T02:42:28;0.85;;;0.70;;
23280;SDS011;11809;56.390;-3.266;2023-05-01T02:44:58;1.05;;;0.45;;
23280;SDS011;11809;56.390;-3.266;2023-05-01T02:47:30;2.15;;;0.80;;
23280;SDS011;11809;56.390;-3.266;2023-05-01T02:49:59;1.15;;;0.52;;
23280;SDS011;11809;56.390;-3.266;2023-05-01T02:52:27;0.82;;;0.60;;
23280;SDS011;11809;56.390;-3.266;2023-05-01T02:54:55;1.33;;;0.70;;
23280;SDS011;11809;56.390;-3.266;2023-05-01T02:57:22;0.63;;;0.50;;
23280;SDS011;11809;56.390;-3.266;2023-05-01T02:59:49;0.70;;;0.60;;
23280;SDS011;11809;56.390;-3.266;2023-05-01T03:02:16;1.15;;;0.60;;
23280;SDS011;11809;56.390;-3.266;2023-05-01T03:04:44;2.03;;;0.57;;
23280;SDS011;11809;56.390;-3.266;2023-05-01T03:07:11;1.65;;;0.70;;
23280;SDS011;11809;56.390;-3.266;2023-05-01T03:09:38;0.88;;;0.60;;
23280;SDS011;11809;56.390;-3.266;2023-05-01T03:12:05;1.40;;;0.70;;
23280;SDS011;11809;56.390;-3.266;2023-05-01T03:14:32;0.60;;;0.50;;
23280;SDS011;11809;56.390;-3.266;2023-05-01T03:16:59;0.70;;;0.50;;
23280;SDS011;11809;56.390;-3.266;2023-05-01T03:19:26;1.40;;;0.57;;
23280;SDS011;11809;56.390;-3.266;2023-05-01T03:21:53;0.55;;;0.50;;
23280;SDS011;11809;56.390;-3.266;2023-05-01T03:24:20;1.48;;;0.50;;
23280;SDS011;11809;56.390;-3.266;2023-05-01T03:26:47;1.95;;;0.50;;
23280;SDS011;11809;56.390;-3.266;2023-05-01T03:29:14;0.45;;;0.45;;
23280;SDS011;11809;56.390;-3.266;2023-05-01T03:31:41;2.03;;;0.60;;
23280;SDS011;11809;56.390;-3.266;2023-05-01T03:34:08;0.75;;;0.50;;
23280;SDS011;11809;56.390;-3.266;2023-05-01T03:36:35;0.77;;;0.52;;
23280;SDS011;11809;56.390;-3.266;2023-05-01T03:39:02;0.52;;;0.50;;
23280;SDS011;11809;56.390;-3.266;2023-05-01T03:41:30;0.75;;;0.50;;
23280;SDS011;11809;56.390;-3.266;2023-05-01T03:43:57;0.90;;;0.50;;
23280;SDS011;11809;56.390;-3.266;2023-05-01T03:46:24;0.77;;;0.60;;
23280;SDS011;11809;56.390;-3.266;2023-05-01T03:48:51;0.65;;;0.50;;
23280;SDS011;11809;56.390;-3.266;2023-05-01T03:51:18;2.75;;;0.50;;
23280;SDS011;11809;56.390;-3.266;2023-05-01T03:53:45;1.15;;;0.60;;
23280;SDS011;11809;56.390;-3.266;2023-05-01T03:56:12;0.55;;;0.55;;
23280;SDS011;11809;56.390;-3.266;2023-05-01T03:58:39;0.50;;;0.40;;
23280;SDS011;11809;56.390;-3.266;2023-05-01T04:01:06;0.50;;;0.40;;
23280;SDS011;11809;56.390;-3.266;2023-05-01T04:03:33;0.50;;;0.50;;
23280;SDS011;11809;56.390;-3.266;2023-05-01T04:06:00;0.90;;;0.60;;
23280;SDS011;11809;56.390;-3.266;2023-05-01T04:08:28;1.05;;;0.50;;
23280;SDS011;11809;56.390;-3.266;2023-05-01T04:10:55;0.70;;;0.47;;
23280;SDS011;11809;56.390;-3.266;2023-05-01T04:13:22;1.35;;;0.47;;
23280;SDS011;11809;56.390;-3.266;2023-05-01T04:15:49;1.77;;;0.50;;
23280;SDS011;11809;56.390;-3.266;2023-05-01T04:18:16;2.15;;;0.50;;
23280;SDS011;11809;56.390;-3.266;2023-05-01T04:20:43;0.80;;;0.50;;
23280;SDS011;11809;56.390;-3.266;2023-05-01T04:23:10;1.08;;;0.60;;
23280;SDS011;11809;56.390;-3.266;2023-05-01T04:25:37;0.52;;;0.52;;
23280;SDS011;11809;56.390;-3.266;2023-05-01T04:28:04;0.95;;;0.63;;
23280;SDS011;11809;56.390;-3.266;2023-05-01T04:30:31;0.63;;;0.50;;
23280;SDS011;11809;56.390;-3.266;2023-05-01T04:32:59;0.60;;;0.50;;
23280;SDS011;11809;56.390;-3.266;2023-05-01T04:35:27;1.20;;;0.57;;
23280;SDS011;11809;56.390;-3.266;2023-05-01T04:37:54;1.10;;;0.40;;
23280;SDS011;11809;56.390;-3.266;2023-05-01T04:40:21;1.52;;;0.77;;
23280;SDS011;11809;56.390;-3.266;2023-05-01T04:42:48;1.42;;;0.45;;
23280;SDS011;11809;56.390;-3.266;2023-05-01T04:45:15;1.98;;;0.57;;
23280;SDS011;11809;56.390;-3.266;2023-05-01T04:47:42;0.73;;;0.60;;
23280;SDS011;11809;56.390;-3.266;2023-05-01T04:50:09;1.83;;;0.45;;
23280;SDS011;11809;56.390;-3.266;2023-05-01T04:52:37;1.17;;;0.40;;
23280;SDS011;11809;56.390;-3.266;2023-05-01T04:55:04;0.95;;;0.50;;
23280;SDS011;11809;56.390;-3.266;2023-05-01T04:57:32;1.90;;;0.65;;
23280;SDS011;11809;56.390;-3.266;2023-05-01T04:59:59;0.90;;;0.40;;
23280;SDS011;11809;56.390;-3.266;2023-05-01T05:02:26;0.50;;;0.50;;
23280;SDS011;11809;56.390;-3.266;2023-05-01T05:04:53;0.65;;;0.45;;
23280;SDS011;11809;56.390;-3.266;2023-05-01T05:07:22;21.13;;;1.27;;
23280;SDS011;11809;56.390;-3.266;2023-05-01T05:09:49;4.25;;;0.70;;
23280;SDS011;11809;56.390;-3.266;2023-05-01T05:12:16;3.42;;;0.88;;
23280;SDS011;11809;56.390;-3.266;2023-05-01T05:14:43;6.32;;;0.50;;
23280;SDS011;11809;56.390;-3.266;2023-05-01T05:17:10;7.25;;;0.82;;
23280;SDS011;11809;56.390;-3.266;2023-05-01T05:19:37;5.45;;;0.90;;
23280;SDS011;11809;56.390;-3.266;2023-05-01T05:22:04;3.47;;;0.52;;
23280;SDS011;11809;56.390;-3.266;2023-05-01T05:24:31;1.38;;;0.50;;
23280;SDS011;11809;56.390;-3.266;2023-05-01T05:26:58;1.17;;;0.43;;
23280;SDS011;11809;56.390;-3.266;2023-05-01T05:29:25;3.20;;;0.55;;
23280;SDS011;11809;56.390;-3.266;2023-05-01T05:31:52;1.08;;;0.65;;
23280;SDS011;11809;56.390;-3.266;2023-05-01T05:34:19;11.65;;;0.70;;
23280;SDS011;11809;56.390;-3.266;2023-05-01T05:36:46;8.73;;;1.25;;
23280;SDS011;11809;56.390;-3.266;2023-05-01T05:39:13;6.07;;;0.90;;
23280;SDS011;11809;56.390;-3.266;2023-05-01T05:41:41;9.40;;;0.68;;
23280;SDS011;11809;56.390;-3.266;2023-05-01T05:44:08;6.25;;;0.88;;
23280;SDS011;11809;56.390;-3.266;2023-05-01T05:46:34;9.82;;;0.85;;
23280;SDS011;11809;56.390;-3.266;2023-05-01T05:49:02;20.67;;;1.15;;
23280;SDS011;11809;56.390;-3.266;2023-05-01T05:51:29;10.80;;;0.93;;
23280;SDS011;11809;56.390;-3.266;2023-05-01T05:53:56;4.28;;;0.60;;
23280;SDS011;11809;56.390;-3.266;2023-05-01T05:56:23;5.45;;;0.68;;
23280;SDS011;11809;56.390;-3.266;2023-05-01T05:58:50;11.80;;;0.90;;
23280;SDS011;11809;56.390;-3.266;2023-05-01T06:01:17;9.77;;;0.82;;
23280;SDS011;11809;56.390;-3.266;2023-05-01T06:03:44;13.55;;;1.67;;
23280;SDS011;11809;56.390;-3.266;2023-05-01T06:06:11;11.70;;;1.63;;
23280;SDS011;11809;56.390;-3.266;2023-05-01T06:08:38;17.30;;;1.67;;
23280;SDS011;11809;56.390;-3.266;2023-05-01T06:11:07;31.17;;;1.88;;
23280;SDS011;11809;56.390;-3.266;2023-05-01T06:13:34;19.17;;;1.10;;
23280;SDS011;11809;56.390;-3.266;2023-05-01T06:16:02;27.15;;;1.75;;
23280;SDS011;11809;56.390;-3.266;2023-05-01T06:18:29;19.95;;;1.45;;
23280;SDS011;11809;56.390;-3.266;2023-05-01T06:20:56;7.22;;;1.23;;
23280;SDS011;11809;56.390;-3.266;2023-05-01T06:23:24;17.95;;;1.42;;
23280;SDS011;11809;56.390;-3.266;2023-05-01T06:25:51;15.57;;;1.85;;
23280;SDS011;11809;56.390;-3.266;2023-05-01T06:28:18;14.57;;;1.55;;
23280;SDS011;11809;56.390;-3.266;2023-05-01T06:30:45;19.60;;;1.88;;
23280;SDS011;11809;56.390;-3.266;2023-05-01T06:33:13;6.97;;;1.13;;
23280;SDS011;11809;56.390;-3.266;2023-05-01T06:35:40;12.73;;;1.60;;
23280;SDS011;11809;56.390;-3.266;2023-05-01T06:38:08;12.65;;;1.10;;
23280;SDS011;11809;56.390;-3.266;2023-05-01T06:40:35;77.05;;;4.93;;
23280;SDS011;11809;56.390;-3.266;2023-05-01T06:43:02;24.02;;;1.70;;
23280;SDS011;11809;56.390;-3.266;2023-05-01T06:45:29;25.70;;;2.30;;
23280;SDS011;11809;56.390;-3.266;2023-05-01T06:47:56;15.43;;;1.98;;
23280;SDS011;11809;56.390;-3.266;2023-05-01T06:50:24;35.05;;;2.25;;
23280;SDS011;11809;56.390;-3.266;2023-05-01T06:52:51;16.83;;;1.67;;
23280;SDS011;11809;56.390;-3.266;2023-05-01T06:55:18;21.13;;;1.75;;
23280;SDS011;11809;56.390;-3.266;2023-05-01T06:57:45;12.02;;;1.48;;
23280;SDS011;11809;56.390;-3.266;2023-05-01T07:00:12;15.25;;;1.23;;
23280;SDS011;11809;56.390;-3.266;2023-05-01T07:02:40;8.13;;;1.30;;
23280;SDS011;11809;56.390;-3.266;2023-05-01T07:05:08;11.30;;;1.10;;
23280;SDS011;11809;56.390;-3.266;2023-05-01T07:07:35;10.23;;;1.23;;
23280;SDS011;11809;56.390;-3.266;2023-05-01T07:10:07;11.10;;;1.30;;
23280;SDS011;11809;56.390;-3.266;2023-05-01T07:12:35;5.95;;;0.93;;
23280;SDS011;11809;56.390;-3.266;2023-05-01T07:15:02;5.93;;;0.93;;
23280;SDS011;11809;56.390;-3.266;2023-05-01T07:17:30;16.50;;;1.30;;
23280;SDS011;11809;56.390;-3.266;2023-05-01T07:19:57;10.07;;;1.00;;
23280;SDS011;11809;56.390;-3.266;2023-05-01T07:22:24;4.50;;;1.10;;
23280;SDS011;11809;56.390;-3.266;2023-05-01T07:24:52;13.50;;;1.30;;
23280;SDS011;11809;56.390;-3.266;2023-05-01T07:27:19;5.78;;;1.40;;
23280;SDS011;11809;56.390;-3.266;2023-05-01T07:29:46;3.17;;;0.63;;
23280;SDS011;11809;56.390;-3.266;2023-05-01T07:32:13;6.43;;;0.88;;
23280;SDS011;11809;56.390;-3.266;2023-05-01T07:34:41;7.40;;;0.82;;
23280;SDS011;11809;56.390;-3.266;2023-05-01T07:37:08;6.40;;;0.70;;
23280;SDS011;11809;56.390;-3.266;2023-05-01T07:39:35;3.05;;;0.80;;
23280;SDS011;11809;56.390;-3.266;2023-05-01T07:42:05;2.58;;;0.70;;
23280;SDS011;11809;56.390;-3.266;2023-05-01T07:44:33;2.55;;;0.70;;
23280;SDS011;11809;56.390;-3.266;2023-05-01T07:47:03;2.28;;;0.60;;
23280;SDS011;11809;56.390;-3.266;2023-05-01T07:49:34;1.70;;;0.65;;
23280;SDS011;11809;56.390;-3.266;2023-05-01T07:52:03;3.05;;;0.80;;
23280;SDS011;11809;56.390;-3.266;2023-05-01T07:54:33;3.88;;;0.90;;
23280;SDS011;11809;56.390;-3.266;2023-05-01T07:57:01;6.93;;;0.90;;
23280;SDS011;11809;56.390;-3.266;2023-05-01T07:59:29;2.72;;;0.57;;
23280;SDS011;11809;56.390;-3.266;2023-05-01T08:01:56;2.63;;;0.57;;
23280;SDS011;11809;56.390;-3.266;2023-05-01T08:04:23;3.28;;;0.75;;
23280;SDS011;11809;56.390;-3.266;2023-05-01T08:06:50;2.72;;;0.40;;
23280;SDS011;11809;56.390;-3.266;2023-05-01T08:09:18;19.60;;;0.80;;
23280;SDS011;11809;56.390;-3.266;2023-05-01T08:11:45;4.68;;;0.70;;
23280;SDS011;11809;56.390;-3.266;2023-05-01T08:14:12;1.90;;;0.60;;
23280;SDS011;11809;56.390;-3.266;2023-05-01T08:16:39;1.80;;;0.52;;
23280;SDS011;11809;56.390;-3.266;2023-05-01T08:19:07;3.03;;;0.60;;
23280;SDS011;11809;56.390;-3.266;2023-05-01T08:21:34;0.70;;;0.47;;
23280;SDS011;11809;56.390;-3.266;2023-05-01T08:24:01;2.97;;;0.60;;
23280;SDS011;11809;56.390;-3.266;2023-05-01T08:26:29;3.55;;;0.60;;
23280;SDS011;11809;56.390;-3.266;2023-05-01T08:28:56;3.65;;;0.60;;
23280;SDS011;11809;56.390;-3.266;2023-05-01T08:31:23;1.95;;;0.45;;
23280;SDS011;11809;56.390;-3.266;2023-05-01T08:33:51;1.63;;;0.60;;
23280;SDS011;11809;56.390;-3.266;2023-05-01T08:36:18;3.28;;;0.60;;
23280;SDS011;11809;56.390;-3.266;2023-05-01T08:38:46;5.50;;;0.45;;
23280;SDS011;11809;56.390;-3.266;2023-05-01T08:41:19;4.55;;;0.80;;
23280;SDS011;11809;56.390;-3.266;2023-05-01T08:43:48;9.40;;;0.75;;
23280;SDS011;11809;56.390;-3.266;2023-05-01T08:46:18;7.30;;;0.77;;
23280;SDS011;11809;56.390;-3.266;2023-05-01T08:48:51;5.15;;;0.85;;
23280;SDS011;11809;56.390;-3.266;2023-05-01T08:51:23;13.05;;;1.13;;
23280;SDS011;11809;56.390;-3.266;2023-05-01T08:53:51;5.47;;;0.73;;
23280;SDS011;11809;56.390;-3.266;2023-05-01T08:56:23;12.02;;;1.08;;
23280;SDS011;11809;56.390;-3.266;2023-05-01T08:58:51;11.85;;;0.95;;
23280;SDS011;11809;56.390;-3.266;2023-05-01T09:01:21;3.33;;;0.60;;
23280;SDS011;11809;56.390;-3.266;2023-05-01T09:03:49;9.00;;;0.88;;
23280;SDS011;11809;56.390;-3.266;2023-05-01T09:06:19;2.60;;;0.43;;
23280;SDS011;11809;56.390;-3.266;2023-05-01T09:08:47;3.90;;;0.60;;
23280;SDS011;11809;56.390;-3.266;2023-05-01T09:11:14;3.67;;;0.50;;
23280;SDS011;11809;56.390;-3.266;2023-05-01T09:13:42;1.05;;;0.40;;
23280;SDS011;11809;56.390;-3.266;2023-05-01T09:16:09;5.40;;;0.60;;
23280;SDS011;11809;56.390;-3.266;2023-05-01T09:18:37;4.07;;;0.30;;
23280;SDS011;11809;56.390;-3.266;2023-05-01T09:21:06;29.92;;;1.52;;
23280;SDS011;11809;56.390;-3.266;2023-05-01T09:23:34;3.53;;;0.50;;
23280;SDS011;11809;56.390;-3.266;2023-05-01T09:26:03;3.35;;;0.20;;
23280;SDS011;11809;56.390;-3.266;2023-05-01T09:28:39;8.23;;;0.35;;
23280;SDS011;11809;56.390;-3.266;2023-05-01T09:31:23;3.95;;;0.40;;
23280;SDS011;11809;56.390;-3.266;2023-05-01T09:33:57;0.95;;;0.20;;
23280;SDS011;11809;56.390;-3.266;2023-05-01T09:36:30;0.75;;;0.60;;
23280;SDS011;11809;56.390;-3.266;2023-05-01T09:39:01;0.20;;;0.20;;
23280;SDS011;11809;56.390;-3.266;2023-05-01T09:41:29;8.98;;;0.50;;
23280;SDS011;11809;56.390;-3.266;2023-05-01T09:43:58;5.70;;;0.50;;
23280;SDS011;11809;56.390;-3.266;2023-05-01T09:46:27;19.98;;;0.93;;
23280;SDS011;11809;56.390;-3.266;2023-05-01T09:48:58;13.63;;;0.82;;
23280;SDS011;11809;56.390;-3.266;2023-05-01T09:54:00;22.58;;;1.65;;
23280;SDS011;11809;56.390;-3.266;2023-05-01T09:56:30;4.03;;;0.38;;
23280;SDS011;11809;56.390;-3.266;2023-05-01T09:59:16;6.70;;;0.52;;
23280;SDS011;11809;56.390;-3.266;2023-05-01T10:01:46;6.28;;;0.45;;
23280;SDS011;11809;56.390;-3.266;2023-05-01T10:04:15;3.20;;;0.40;;
23280;SDS011;11809;56.390;-3.266;2023-05-01T10:06:43;4.78;;;0.38;;
23280;SDS011;11809;56.390;-3.266;2023-05-01T10:09:10;3.90;;;0.30;;
23280;SDS011;11809;56.390;-3.266;2023-05-01T10:11:49;7.07;;;0.50;;
23280;SDS011;11809;56.390;-3.266;2023-05-01T10:14:21;5.50;;;0.47;;
23280;SDS011;11809;56.390;-3.266;2023-05-01T10:16:53;0.73;;;0.55;;
23280;SDS011;11809;56.390;-3.266;2023-05-01T10:19:23;4.88;;;0.85;;
23280;SDS011;11809;56.390;-3.266;2023-05-01T10:21:51;2.05;;;0.20;;
23280;SDS011;11809;56.390;-3.266;2023-05-01T10:24:19;1.45;;;0.45;;
23280;SDS011;11809;56.390;-3.266;2023-05-01T10:26:47;0.50;;;0.20;;
23280;SDS011;11809;56.390;-3.266;2023-05-01T10:29:14;0.88;;;0.20;;
23280;SDS011;11809;56.390;-3.266;2023-05-01T10:31:41;0.75;;;0.30;;
23280;SDS011;11809;56.390;-3.266;2023-05-01T10:34:09;1.20;;;0.30;;
23280;SDS011;11809;56.390;-3.266;2023-05-01T10:36:43;1.00;;;0.10;;
23280;SDS011;11809;56.390;-3.266;2023-05-01T10:44:40;0.40;;;0.20;;
23280;SDS011;11809;56.390;-3.266;2023-05-01T10:50:03;2.22;;;0.28;;
23280;SDS011;11809;56.390;-3.266;2023-05-01T10:55:37;0.57;;;0.20;;
23280;SDS011;11809;56.390;-3.266;2023-05-01T10:58:12;2.90;;;0.13;;
23280;SDS011;11809;56.390;-3.266;2023-05-01T11:03:57;4.60;;;0.30;;
23280;SDS011;11809;56.390;-3.266;2023-05-01T11:06:34;6.10;;;0.40;;
23280;SDS011;11809;56.390;-3.266;2023-05-01T11:12:01;35.25;;;1.75;;
23280;SDS011;11809;56.390;-3.266;2023-05-01T11:20:06;5.82;;;0.40;;
23280;SDS011;11809;56.390;-3.266;2023-05-01T11:22:33;4.47;;;0.40;;
23280;SDS011;11809;56.390;-3.266;2023-05-01T11:25:02;1.80;;;0.20;;
23280;SDS011;11809;56.390;-3.266;2023-05-01T11:27:30;3.75;;;0.40;;
23280;SDS011;11809;56.390;-3.266;2023-05-01T11:29:58;4.38;;;0.52;;
23280;SDS011;11809;56.390;-3.266;2023-05-01T11:32:26;1.52;;;0.30;;
23280;SDS011;11809;56.390;-3.266;2023-05-01T11:34:55;1.58;;;0.50;;
23280;SDS011;11809;56.390;-3.266;2023-05-01T11:37:42;2.15;;;0.40;;
23280;SDS011;11809;56.390;-3.266;2023-05-01T11:40:26;4.40;;;1.45;;
23280;SDS011;11809;56.390;-3.266;2023-05-01T11:45:28;68.10;;;13.02;;
23280;SDS011;11809;56.390;-3.266;2023-05-01T11:47:56;16.52;;;6.30;;
23280;SDS011;11809;56.390;-3.266;2023-05-01T11:50:35;9.57;;;5.97;;
23280;SDS011;11809;56.390;-3.266;2023-05-01T11:53:04;17.52;;;6.88;;
23280;SDS011;11809;56.390;-3.266;2023-05-01T11:55:46;12.95;;;6.50;;
23280;SDS011;11809;56.390;-3.266;2023-05-01T11:58:15;20.45;;;6.65;;
23280;SDS011;11809;56.390;-3.266;2023-05-01T12:00:42;65.05;;;8.93;;
23280;SDS011;11809;56.390;-3.266;2023-05-01T12:03:13;18.83;;;4.57;;
23280;SDS011;11809;56.390;-3.266;2023-05-01T12:05:41;29.90;;;5.28;;
23280;SDS011;11809;56.390;-3.266;2023-05-01T12:08:10;10.18;;;3.10;;
23280;SDS011;11809;56.390;-3.266;2023-05-01T12:10:41;15.68;;;3.85;;
23280;SDS011;11809;56.390;-3.266;2023-05-01T12:13:10;21.55;;;4.20;;
23280;SDS011;11809;56.390;-3.266;2023-05-01T12:15:40;24.58;;;3.70;;
23280;SDS011;11809;56.390;-3.266;2023-05-01T12:18:10;13.98;;;3.05;;
23280;SDS011;11809;56.390;-3.266;2023-05-01T12:20:44;5.43;;;2.20;;
23280;SDS011;11809;56.390;-3.266;2023-05-01T12:23:19;8.27;;;1.92;;
23280;SDS011;11809;56.390;-3.266;2023-05-01T12:25:57;15.48;;;2.92;;
23280;SDS011;11809;56.390;-3.266;2023-05-01T12:28:24;19.25;;;2.67;;
23280;SDS011;11809;56.390;-3.266;2023-05-01T12:30:59;8.38;;;1.58;;
23280;SDS011;11809;56.390;-3.266;2023-05-01T12:33:30;12.95;;;1.88;;
23280;SDS011;11809;56.390;-3.266;2023-05-01T12:36:07;9.57;;;1.50;;
23280;SDS011;11809;56.390;-3.266;2023-05-01T12:38:37;11.18;;;1.45;;
23280;SDS011;11809;56.390;-3.266;2023-05-01T12:41:04;7.10;;;0.95;;
23280;SDS011;11809;56.390;-3.266;2023-05-01T12:43:35;11.02;;;0.98;;
23280;SDS011;11809;56.390;-3.266;2023-05-01T12:46:04;13.15;;;1.05;;
23280;SDS011;11809;56.390;-3.266;2023-05-01T12:48:32;3.83;;;0.70;;
23280;SDS011;11809;56.390;-3.266;2023-05-01T12:51:04;2.70;;;0.40;;
23280;SDS011;11809;56.390;-3.266;2023-05-01T12:53:33;4.45;;;0.63;;
23280;SDS011;11809;56.390;-3.266;2023-05-01T12:56:01;2.60;;;0.52;;
23280;SDS011;11809;56.390;-3.266;2023-05-01T12:58:35;3.15;;;0.40;;
23280;SDS011;11809;56.390;-3.266;2023-05-01T13:01:03;2.38;;;0.40;;
23280;SDS011;11809;56.390;-3.266;2023-05-01T13:03:30;12.00;;;0.63;;
23280;SDS011;11809;56.390;-3.266;2023-05-01T13:06:00;10.00;;;0.73;;
23280;SDS011;11809;56.390;-3.266;2023-05-01T13:11:01;14.50;;;1.08;;
23280;SDS011;11809;56.390;-3.266;2023-05-01T13:13:35;7.43;;;0.70;;
23280;SDS011;11809;56.390;-3.266;2023-05-01T13:16:24;8.70;;;0.82;;
23280;SDS011;11809;56.390;-3.266;2023-05-01T13:18:52;0.95;;;0.30;;
23280;SDS011;11809;56.390;-3.266;2023-05-01T13:21:19;3.05;;;0.20;;
23280;SDS011;11809;56.390;-3.266;2023-05-01T13:23:51;0.98;;;0.40;;
23280;SDS011;11809;56.390;-3.266;2023-05-01T13:26:31;2.03;;;0.20;;
23280;SDS011;11809;56.390;-3.266;2023-05-01T13:29:04;3.47;;;0.60;;
23280;SDS011;11809;56.390;-3.266;2023-05-01T13:31:31;6.33;;;0.47;;
23280;SDS011;11809;56.390;-3.266;2023-05-01T13:33:58;4.80;;;0.40;;
23280;SDS011;11809;56.390;-3.266;2023-05-01T13:36:30;11.68;;;0.80;;
23280;SDS011;11809;56.390;-3.266;2023-05-01T13:39:00;4.07;;;0.25;;
23280;SDS011;11809;56.390;-3.266;2023-05-01T13:41:28;3.28;;;0.20;;
23280;SDS011;11809;56.390;-3.266;2023-05-01T13:43:56;1.70;;;0.30;;
23280;SDS011;11809;56.390;-3.266;2023-05-01T13:46:24;3.28;;;0.30;;
23280;SDS011;11809;56.390;-3.266;2023-05-01T13:48:53;3.97;;;0.30;;
23280;SDS011;11809;56.390;-3.266;2023-05-01T13:51:21;0.20;;;0.20;;
23280;SDS011;11809;56.390;-3.266;2023-05-01T13:53:50;1.48;;;0.25;;
23280;SDS011;11809;56.390;-3.266;2023-05-01T13:56:19;2.47;;;0.40;;
23280;SDS011;11809;56.390;-3.266;2023-05-01T13:58:48;13.65;;;1.00;;
23280;SDS011;11809;56.390;-3.266;2023-05-01T14:01:17;22.83;;;1.02;;
23280;SDS011;11809;56.390;-3.266;2023-05-01T14:03:47;279.20;;;14.57;;
23280;SDS011;11809;56.390;-3.266;2023-05-01T14:06:15;164.52;;;7.63;;
23280;SDS011;11809;56.390;-3.266;2023-05-01T14:08:45;105.28;;;6.10;;
23280;SDS011;11809;56.390;-3.266;2023-05-01T14:11:13;61.42;;;4.38;;
23280;SDS011;11809;56.390;-3.266;2023-05-01T14:13:45;27.20;;;2.38;;
23280;SDS011;11809;56.390;-3.266;2023-05-01T14:16:24;15.80;;;1.23;;
23280;SDS011;11809;56.390;-3.266;2023-05-01T14:18:53;38.38;;;1.75;;
23280;SDS011;11809;56.390;-3.266;2023-05-01T14:21:24;37.85;;;1.95;;
23280;SDS011;11809;56.390;-3.266;2023-05-01T14:23:55;20.75;;;1.42;;
23280;SDS011;11809;56.390;-3.266;2023-05-01T14:26:23;22.27;;;1.40;;
23280;SDS011;11809;56.390;-3.266;2023-05-01T14:28:51;22.48;;;1.63;;
23280;SDS011;11809;56.390;-3.266;2023-05-01T14:31:25;12.77;;;1.10;;
23280;SDS011;11809;56.390;-3.266;2023-05-01T14:36:23;17.58;;;1.65;;
23280;SDS011;11809;56.390;-3.266;2023-05-01T14:38:51;10.55;;;0.98;;
23280;SDS011;11809;56.390;-3.266;2023-05-01T14:41:18;14.23;;;1.08;;
23280;SDS011;11809;56.390;-3.266;2023-05-01T14:43:46;13.38;;;1.10;;
23280;SDS011;11809;56.390;-3.266;2023-05-01T14:46:42;13.13;;;1.20;;
23280;SDS011;11809;56.390;-3.266;2023-05-01T14:49:19;8.07;;;0.88;;
23280;SDS011;11809;56.390;-3.266;2023-05-01T14:51:50;7.82;;;1.02;;
23280;SDS011;11809;56.390;-3.266;2023-05-01T14:54:19;9.15;;;0.57;;
23280;SDS011;11809;56.390;-3.266;2023-05-01T14:56:47;8.20;;;1.27;;
23280;SDS011;11809;56.390;-3.266;2023-05-01T14:59:15;6.38;;;0.60;;
23280;SDS011;11809;56.390;-3.266;2023-05-01T15:01:42;5.20;;;0.60;;
23280;SDS011;11809;56.390;-3.266;2023-05-01T15:04:10;7.00;;;0.80;;
23280;SDS011;11809;56.390;-3.266;2023-05-01T15:06:40;7.25;;;0.55;;
23280;SDS011;11809;56.390;-3.266;2023-05-01T15:09:08;7.78;;;1.08;;
23280;SDS011;11809;56.390;-3.266;2023-05-01T15:11:35;7.43;;;0.95;;
23280;SDS011;11809;56.390;-3.266;2023-05-01T15:14:03;5.47;;;1.83;;
23280;SDS011;11809;56.390;-3.266;2023-05-01T15:16:31;21.13;;;7.63;;
23280;SDS011;11809;56.390;-3.266;2023-05-01T15:18:59;21.70;;;8.75;;
23280;SDS011;11809;56.390;-3.266;2023-05-01T15:21:27;18.52;;;7.82;;
23280;SDS011;11809;56.390;-3.266;2023-05-01T15:23:54;14.88;;;6.20;;